createdAt,value
2022-11-20T00:01:35.667Z,77.09
2022-11-20T00:11:37.975Z,78.14
2022-11-20T00:21:40.417Z,77.67
2022-11-20T00:31:42.604Z,77.84
2022-11-20T00:41:44.766Z,77.91
2022-11-20T00:51:47.051Z,77.70
2022-11-20T01:01:49.271Z,77.87
2022-11-20T01:11:51.513Z,77.58
2022-11-20T01:21:55.240Z,79.67
2022-11-20T01:31:57.427Z,78.66
2022-11-20T01:42:18.118Z,78.06
2022-11-20T01:52:32.791Z,78.69
2022-11-20T02:02:36.348Z,78.75
2022-11-20T02:12:56.834Z,78.40
2022-11-20T02:23:20.921Z,78.99
2022-11-20T02:33:23.095Z,79.63
2022-11-20T02:43:25.252Z,79.80
2022-11-20T02:53:27.412Z,79.42
2022-11-20T03:03:29.554Z,78.49
2022-11-20T03:13:31.810Z,78.07
2022-11-20T03:23:34.732Z,79.42
2022-11-20T03:33:37.264Z,78.55
2022-11-20T03:43:39.835Z,77.88
2022-11-20T03:53:43.909Z,77.55
2022-11-20T04:03:46.469Z,77.68
2022-11-20T04:13:57.561Z,79.65
2022-11-20T04:23:59.863Z,78.56
2022-11-20T04:34:04.157Z,78.65
2022-11-20T04:44:07.168Z,77.68
2022-11-20T04:54:10.573Z,77.66
2022-11-20T05:04:12.733Z,79.03
2022-11-20T05:14:14.903Z,78.31
2022-11-20T05:24:17.126Z,77.04
2022-11-20T05:34:19.279Z,77.53
2022-11-20T05:44:21.453Z,77.97
2022-11-20T05:54:23.630Z,78.06
2022-11-20T06:04:26.011Z,77.94
2022-11-20T06:14:28.211Z,78.54
2022-11-20T06:24:30.424Z,78.47
2022-11-20T06:34:32.563Z,79.72
2022-11-20T06:44:34.740Z,80.02
2022-11-20T06:54:36.885Z,80.04
2022-11-20T07:04:40.341Z,80.36
2022-11-20T07:14:42.542Z,78.76
2022-11-20T07:24:46.265Z,79.57
2022-11-20T07:34:48.695Z,79.30
2022-11-20T07:44:50.855Z,79.39
2022-11-20T07:54:52.998Z,80.04
2022-11-20T08:04:55.156Z,79.18
2022-11-20T08:15:00.002Z,78.69
2022-11-20T08:25:02.576Z,78.71
2022-11-20T08:35:05.451Z,78.27
2022-11-20T08:45:08.054Z,78.48
2022-11-20T08:55:11.074Z,77.75
2022-11-20T09:05:13.404Z,77.56
2022-11-20T09:15:15.699Z,77.12
2022-11-20T09:25:18.095Z,77.09
2022-11-20T09:35:20.251Z,75.52
2022-11-20T09:45:52.102Z,75.76
2022-11-20T09:55:56.349Z,74.78
2022-11-20T10:06:01.765Z,74.42
2022-11-20T10:16:06.805Z,73.35
2022-11-20T10:26:24.287Z,73.44
2022-11-20T10:36:35.565Z,72.01
2022-11-20T10:46:45.160Z,73.23
2022-11-20T10:56:51.415Z,73.70
2022-11-20T11:06:59.949Z,72.99
2022-11-20T11:17:02.171Z,71.76
2022-11-20T11:27:16.777Z,70.71
2022-11-20T11:37:25.191Z,69.88
2022-11-20T11:47:32.537Z,68.95
2022-11-20T11:57:52.133Z,71.27
2022-11-20T12:08:12.341Z,68.58
2022-11-20T12:18:21.290Z,64.04
2022-11-20T12:28:37.638Z,62.62
2022-11-20T12:38:57.918Z,61.85
2022-11-20T12:49:20.632Z,63.72
2022-11-20T12:59:35.078Z,67.49
2022-11-20T13:09:46.162Z,68.77
2022-11-20T13:19:55.127Z,69.06
2022-11-20T13:30:19.520Z,71.43
2022-11-20T13:40:24.099Z,72.74
2022-11-20T13:50:48.365Z,71.83
2022-11-20T14:00:59.482Z,72.71
2022-11-20T14:11:05.925Z,72.83
2022-11-20T14:21:10.475Z,72.73
2022-11-20T14:31:23.832Z,73.53
2022-11-20T14:41:26.127Z,73.47
2022-11-20T14:51:42.565Z,72.81
2022-11-20T15:01:58.127Z,72.80
2022-11-20T15:12:03.582Z,72.69
2022-11-20T15:22:14.332Z,74.35
2022-11-20T15:32:16.495Z,74.39
2022-11-20T15:42:18.777Z,75.15
2022-11-20T15:52:21.052Z,75.32
2022-11-20T16:02:23.229Z,75.54
2022-11-20T16:12:44.065Z,75.32
2022-11-20T16:22:46.589Z,77.07
2022-11-20T16:32:49.641Z,78.22
2022-11-20T16:42:52.096Z,78.31
2022-11-20T16:52:54.320Z,78.90
2022-11-20T17:02:56.496Z,79.91
2022-11-20T17:12:58.811Z,79.61
2022-11-20T17:23:01.075Z,80.53
2022-11-20T17:33:03.298Z,81.10
2022-11-20T17:43:05.635Z,79.96
2022-11-20T17:53:07.865Z,78.74
2022-11-20T18:03:10.092Z,79.11
2022-11-20T18:13:12.279Z,77.77
2022-11-20T18:23:14.502Z,78.82
2022-11-20T18:33:17.418Z,77.18
2022-11-20T18:43:38.026Z,76.42
2022-11-20T18:53:45.823Z,75.35
2022-11-20T19:03:49.591Z,75.76
2022-11-20T19:13:52.447Z,75.40
2022-11-20T19:23:56.631Z,74.78
2022-11-20T19:34:03.986Z,73.98
2022-11-20T19:44:09.805Z,74.68
2022-11-20T19:54:12.581Z,74.34
2022-11-20T20:04:14.882Z,74.45
2022-11-20T20:14:18.389Z,74.55
2022-11-20T20:24:20.652Z,74.44
2022-11-20T20:34:23.564Z,74.94
2022-11-20T20:44:44.526Z,74.03
2022-11-20T20:54:46.722Z,74.04
2022-11-20T21:04:49.546Z,74.22
2022-11-20T21:14:51.694Z,74.58
2022-11-20T21:24:53.939Z,74.61
2022-11-20T21:40:10.739Z,74.78
2022-11-20T21:50:12.982Z,75.82
2022-11-20T22:00:15.281Z,75.49
2022-11-20T22:10:18.849Z,75.67
2022-11-20T22:20:21.112Z,76.93
2022-11-20T22:30:23.316Z,77.45
2022-11-20T22:40:25.510Z,76.52
2022-11-20T22:50:27.706Z,77.75
2022-11-20T23:00:30.027Z,76.84
2022-11-20T23:10:32.215Z,75.96
2022-11-20T23:20:37.392Z,77.29
2022-11-20T23:30:39.616Z,78.11
2022-11-20T23:40:41.863Z,78.72
2022-11-20T23:50:45.098Z,77.97
